Bethlehem Airport

Airport
ICAO code: 
FABM
Summary
ICAO Region: 
AFI
Territory: 
Location: 
, Free State
Serving: 
Bethlehem
Elevation: 
5561 ft
Coordinates: 
Aerial View: 
28° 14' 54.211" S, 28° 20' 10.05" E
Metar
Observation
FABM 290452Z 00000KT CAVOK 15/13 Q1022
Station
Bethlehem Airport
Date/Time
2021-11-29 04:52:00
Wind direction
Wind speed
00 kts
Lowest cloud amount
clouds and visibility OK
Temperature
15°C
Dew point
13°C
Humidity
87%
QNH
1022 hPa
Weather condition
n/a

Runways

Designator Length Width Surface Rops
11/29 1175 15 ASP No/No
13/31 1311 46 GRS No/No
Airport map: 
Aerial View: 

SKYbrary Partners:

Safety knowledge contributed by: